Time;durP1;ratioP1;P1;durP2;ratioP2;P2;SDS_P1;SDS_P2;PMS_P1;PMS_P2;Temp;Humidity;BMP_temperature;BMP_pressure;BME280_temperature;BME280_humidity;BME280_pressure;Samples;Min_cycle;Max_cycle;Signal;HPM_P1;HPM_P2
2022/03/08 03:24:33;;;;;;;;;41.25;34.25;;;;;6.10;100.00;101335.44;6297933;22;45941;-95
2022/03/08 03:26:58;;;;;;;;;40.00;36.50;;;;;5.96;100.00;101317.06;6361879;22;45423;-94
2022/03/08 03:29:23;;;;;;;;;35.75;32.00;;;;;6.01;100.00;101327.81;6335502;22;45581;-94
2022/03/08 03:31:49;;;;;;;;;41.50;33.00;;;;;6.02;100.00;101322.75;6334970;22;47957;-96
2022/03/08 03:34:14;;;;;;;;;40.50;32.50;;;;;5.99;100.00;101324.19;6335699;22;45778;-95
2022/03/08 03:36:43;;;;;;;;;41.00;33.75;;;;;5.98;100.00;101325.88;6362331;22;45433;-96
2022/03/08 03:39:08;;;;;;;;;38.25;31.00;;;;;5.92;100.00;101318.56;6335596;22;45276;-95
2022/03/08 03:41:34;;;;;;;;;29.00;26.50;;;;;5.86;100.00;101301.53;6335258;22;47961;-95
2022/03/08 03:43:59;;;;;;;;;34.50;29.25;;;;;5.84;100.00;101301.44;6362469;22;45705;-96
2022/03/08 03:46:24;;;;;;;;;43.00;33.25;;;;;5.87;100.00;101306.88;6334929;22;45205;-95
2022/03/08 03:48:50;;;;;;;;;40.50;29.75;;;;;5.97;100.00;101337.13;6335402;22;45564;-95
2022/03/08 03:51:16;;;;;;;;;35.25;31.75;;;;;5.87;100.00;101306.88;6334774;22;47859;-95
2022/03/08 03:53:43;;;;;;;;;44.25;35.00;;;;;5.74;100.00;101294.66;6335440;22;45336;-96
2022/03/08 03:56:08;;;;;;;;;32.50;28.00;;;;;5.73;100.00;101304.94;6362425;22;45364;-95
2022/03/08 03:58:34;;;;;;;;;43.25;35.75;;;;;5.78;100.00;101320.13;6335290;22;45778;-94
2022/03/08 04:00:59;;;;;;;;;33.75;30.75;;;;;5.73;100.00;101308.44;6362715;22;48229;-95
2022/03/08 04:03:24;;;;;;;;;34.25;28.00;;;;;5.71;100.00;101302.22;6337190;22;45385;-95
2022/03/08 04:05:53;;;;;;;;;37.75;32.00;;;;;5.68;100.00;101299.38;6336045;22;45394;-95
2022/03/08 04:08:20;;;;;;;;;38.25;35.75;;;;;5.63;100.00;101306.88;6370521;22;45246;-94
2022/03/08 04:10:50;;;;;;;;;40.00;33.50;;;;;5.78;100.00;101333.16;6363424;22;47103;-95
2022/03/08 04:13:19;;;;;;;;;46.75;33.75;;;;;5.59;100.00;101310.03;6363315;22;44767;-94
2022/03/08 04:15:45;;;;;;;;;45.25;34.50;;;;;5.62;100.00;101317.19;6363045;22;45428;-94
2022/03/08 04:18:12;;;;;;;;;39.25;31.75;;;;;5.57;100.00;101314.22;6350337;22;45358;-95
2022/03/08 04:20:37;;;;;;;;;37.25;33.25;;;;;5.49;100.00;101298.00;6338290;22;47253;-96
2022/03/08 04:23:05;;;;;;;;;40.75;32.75;;;;;5.50;100.00;101293.72;6337848;22;45263;-96
2022/03/08 04:25:31;;;;;;;;;38.75;29.25;;;;;5.62;100.00;101317.19;6337433;22;45371;-96
2022/03/08 04:27:57;;;;;;;;;36.50;30.50;;;;;5.45;100.00;101281.25;6339677;22;45494;-96
2022/03/08 04:30:24;;;;;;;;;35.50;32.25;;;;;5.48;100.00;101299.72;6349280;22;47058;-93
2022/03/08 04:32:50;;;;;;;;;46.50;37.25;;;;;5.54;100.00;101296.66;6348066;22;45419;-93
2022/03/08 04:35:17;;;;;;;;;38.00;34.50;;;;;5.55;100.00;101311.50;6375695;22;45232;-92
2022/03/08 04:37:44;;;;;;;;;36.75;30.50;;;;;5.58;100.00;101316.03;6343203;22;45193;-93
2022/03/08 04:40:10;;;;;;;;;42.50;34.25;;;;;5.48;100.00;101296.22;6345631;22;47046;-93
2022/03/08 04:42:35;;;;;;;;;41.25;37.25;;;;;5.51;100.00;101301.66;6341615;22;45384;-95
2022/03/08 04:45:01;;;;;;;;;32.50;27.50;;;;;5.50;100.00;101296.31;6364217;22;45422;-95
2022/03/08 04:47:26;;;;;;;;;32.50;29.75;;;;;5.44;100.00;101283.72;6336768;22;45262;-95
2022/03/08 04:49:52;;;;;;;;;29.25;21.00;;;;;5.55;100.00;101300.16;6339778;22;47259;-96
2022/03/08 04:52:17;;;;;;;;;35.50;30.25;;;;;5.60;100.00;101314.44;6338774;22;45315;-95
2022/03/08 04:54:43;;;;;;;;;33.00;26.50;;;;;5.44;100.00;101288.94;6340189;22;45198;-93
2022/03/08 04:57:10;;;;;;;;;41.25;32.00;;;;;5.52;100.00;101307.75;6365910;22;45486;-95
2022/03/08 04:59:35;;;;;;;;;41.75;27.75;;;;;5.52;100.00;101303.44;6367281;22;47006;-95
2022/03/08 05:02:01;;;;;;;;;51.00;42.00;;;;;5.40;100.00;101287.81;6342979;22;45380;-95
2022/03/08 05:04:26;;;;;;;;;42.00;37.00;;;;;5.53;100.00;101310.47;6381205;22;44917;-94
2022/03/08 05:06:52;;;;;;;;;40.50;30.50;;;;;5.47;100.00;101303.09;6350812;22;45565;-95
2022/03/08 05:09:17;;;;;;;;;53.00;40.00;;;;;5.43;100.00;101292.34;6336128;22;47324;-96
2022/03/08 05:11:43;;;;;;;;;49.25;37.25;;;;;5.42;100.00;101298.34;6362238;22;45303;-95
2022/03/08 05:14:08;;;;;;;;;39.75;33.25;;;;;5.45;100.00;101298.56;6366541;22;45370;-93
2022/03/08 05:16:34;;;;;;;;;44.00;29.00;;;;;5.39;100.00;101280.78;6348719;22;45232;-94
2022/03/08 05:18:59;;;;;;;;;39.50;36.75;;;;;5.48;100.00;101298.81;6345078;22;47104;-93
2022/03/08 05:21:25;;;;;;;;;40.00;34.75;;;;;5.45;100.00;101296.88;6341757;22;45314;-94
2022/03/08 05:23:51;;;;;;;;;52.00;36.25;;;;;5.41;100.00;101278.31;6335572;22;45783;-95
2022/03/08 05:26:17;;;;;;;;;42.25;32.25;;;;;5.36;100.00;101281.47;6334578;22;45349;-95
2022/03/08 05:28:42;;;;;;;;;47.25;35.00;;;;;5.51;100.00;101304.25;6334939;22;47960;-95
2022/03/08 05:31:09;;;;;;;;;43.75;36.75;;;;;5.38;100.00;101275.47;6334904;22;45452;-95
2022/03/08 05:33:35;;;;;;;;;40.25;28.50;;;;;5.50;100.00;101298.91;6362073;22;45343;-96
2022/03/08 05:36:00;;;;;;;;;46.25;33.25;;;;;5.40;100.00;101280.00;6335137;22;45312;-96
2022/03/08 05:38:26;;;;;;;;;39.25;33.50;;;;;5.46;100.00;101290.88;6335498;22;48267;-96
2022/03/08 05:40:52;;;;;;;;;45.75;35.00;;;;;5.31;100.00;101267.19;6334781;22;45373;-95
2022/03/08 05:43:17;;;;;;;;;37.75;29.50;;;;;5.42;100.00;101283.63;6334812;22;45242;-95
2022/03/08 05:45:43;;;;;;;;;47.75;31.25;;;;;5.38;100.00;101281.59;6361762;22;44782;-95
2022/03/08 05:48:09;;;;;;;;;35.00;32.25;;;;;5.43;100.00;101292.34;6334830;22;47168;-96
2022/03/08 05:50:35;;;;;;;;;35.50;33.25;;;;;5.46;100.00;101300.41;6361900;22;45672;-95
2022/03/08 05:53:00;;;;;;;;;41.50;34.75;;;;;5.27;100.00;101270.38;6334820;22;45322;-96
2022/03/08 05:55:26;;;;;;;;;45.75;37.00;;;;;5.28;100.00;101276.50;6335747;22;45305;-96
2022/03/08 05:57:51;;;;;;;;;31.75;27.75;;;;;5.41;100.00;101296.53;6360259;22;48251;-96
2022/03/08 06:00:17;;;;;;;;;36.00;28.75;;;;;5.44;100.00;101302.88;6335132;22;45439;-95
2022/03/08 06:02:42;;;;;;;;;43.00;32.75;;;;;5.40;100.00;101294.72;6337068;22;45850;-95
2022/03/08 06:05:08;;;;;;;;;34.50;23.00;;;;;5.43;100.00;101297.56;6335423;22;45304;-96
2022/03/08 06:07:33;;;;;;;;;48.00;38.50;;;;;5.36;100.00;101294.47;6334928;22;48136;-96
2022/03/08 06:09:59;;;;;;;;;43.25;36.75;;;;;5.35;100.00;101296.97;6360965;22;45299;-96
2022/03/08 06:12:25;;;;;;;;;39.75;34.00;;;;;5.29;100.00;101283.47;6361375;22;45350;-94
2022/03/08 06:14:50;;;;;;;;;34.25;28.75;;;;;5.24;100.00;101278.84;6335065;22;45231;-96
2022/03/08 06:17:16;;;;;;;;;40.75;34.25;;;;;5.42;100.00;101300.94;6334349;22;47083;-95
2022/03/08 06:19:41;;;;;;;;;43.00;33.75;;;;;5.51;100.00;101312.06;6361689;22;45718;-95
2022/03/08 06:22:07;;;;;;;;;36.50;25.00;;;;;5.45;100.00;101309.00;6334522;22;45492;-95
2022/03/08 06:24:32;;;;;;;;;35.50;34.50;;;;;5.47;100.00;101321.34;6334132;22;45558;-95
2022/03/08 06:26:58;;;;;;;;;46.50;33.25;;;;;5.51;100.00;101322.50;6334106;22;48242;-96
2022/03/08 06:29:24;;;;;;;;;44.25;30.75;;;;;5.38;100.00;101299.81;6334851;22;45716;-96
2022/03/08 06:31:49;;;;;;;;;50.00;33.75;;;;;5.48;100.00;101317.03;6361049;22;45487;-95
2022/03/08 06:34:14;;;;;;;;;41.50;32.50;;;;;5.43;100.00;101301.06;6363241;22;45390;-96
2022/03/08 06:36:41;;;;;;;;;42.00;37.75;;;;;5.59;100.00;101325.66;6362982;22;47222;-96
2022/03/08 06:39:07;;;;;;;;;39.25;34.25;;;;;5.56;100.00;101315.94;6335971;22;45659;-95
2022/03/08 06:41:32;;;;;;;;;46.25;37.25;;;;;5.54;100.00;101307.06;6335108;22;45430;-95
2022/03/08 06:43:59;;;;;;;;;38.75;29.50;;;;;5.56;100.00;101300.31;6335984;22;45349;-94
2022/03/08 06:46:25;;;;;;;;;55.00;40.00;;;;;5.67;100.00;101305.41;6362076;22;47053;-95
2022/03/08 06:48:50;;;;;;;;;47.25;36.00;;;;;5.70;100.00;101314.34;6362092;22;45277;-95
2022/03/08 06:51:15;;;;;;;;;31.50;25.75;;;;;5.75;100.00;101317.28;6362330;22;45566;-96
2022/03/08 06:53:41;;;;;;;;;44.00;38.25;;;;;5.79;100.00;101310.63;6338090;22;45297;-95
2022/03/08 06:56:06;;;;;;;;;48.50;37.50;;;;;5.84;100.00;101311.84;6361345;22;46914;-95
2022/03/08 06:58:32;;;;;;;;;41.00;37.00;;;;;5.93;100.00;101316.81;6361732;22;45192;-95
2022/03/08 07:00:57;;;;;;;;;42.50;35.50;;;;;5.99;100.00;101313.78;6362367;22;45367;-95
2022/03/08 07:03:23;;;;;;;;;39.00;35.25;;;;;5.96;100.00;101292.69;6362176;22;45431;-95
2022/03/08 07:05:48;;;;;;;;;45.50;35.25;;;;;6.10;100.00;101305.09;6362700;22;48560;-95
2022/03/08 07:08:13;;;;;;;;;53.75;44.00;;;;;6.25;100.00;101320.94;6335121;22;45403;-94
2022/03/08 07:10:39;;;;;;;;;46.75;39.50;;;;;6.26;100.00;101320.13;6338896;22;45284;-95
2022/03/08 07:13:04;;;;;;;;;46.00;39.50;;;;;6.37;100.00;101315.69;6334826;22;45332;-95
2022/03/08 07:15:30;;;;;;;;;36.25;31.50;;;;;6.40;100.00;101307.16;6361411;22;47278;-95
2022/03/08 07:17:55;;;;;;;;;40.25;30.00;;;;;6.55;100.00;101315.19;6361641;22;45476;-95
2022/03/08 07:20:21;;;;;;;;;49.75;40.75;;;;;6.58;100.00;101307.56;6336634;22;45662;-94
2022/03/08 07:22:46;;;;;;;;;49.50;37.00;;;;;6.73;100.00;101324.19;6338218;22;45509;-93
2022/03/08 07:25:13;;;;;;;;;42.75;35.50;;;;;6.79;100.00;101322.03;6332357;22;47077;-88
2022/03/08 07:27:38;;;;;;;;;51.25;40.00;;;;;6.86;100.00;101315.53;6329683;22;45802;-91
2022/03/08 07:30:06;;;;;;;;;45.75;36.25;;;;;6.99;100.00;101318.19;6333338;22;45338;-89
2022/03/08 07:32:31;;;;;;;;;46.75;39.00;;;;;7.10;100.00;101324.16;6357631;22;45323;-91
2022/03/08 07:34:56;;;;;;;;;48.00;36.25;;;;;7.17;100.00;101315.03;6358199;22;47749;-91
2022/03/08 07:37:23;;;;;;;;;42.00;33.50;;;;;7.25;100.00;101321.69;6358193;22;45620;-90
2022/03/08 07:39:48;;;;;;;;;44.75;34.00;;;;;7.31;100.00;101326.44;6356135;22;45646;-89
2022/03/08 07:42:14;;;;;;;;;49.75;32.50;;;;;7.44;100.00;101338.63;6332758;22;45543;-90
2022/03/08 07:44:40;;;;;;;;;48.50;41.00;;;;;7.52;100.00;101339.16;6330488;22;48499;-90
2022/03/08 07:47:05;;;;;;;;;40.50;36.00;;;;;7.59;100.00;101346.59;6333686;22;45400;-90
2022/03/08 07:49:30;;;;;;;;;47.00;40.75;;;;;7.66;100.00;101342.66;6334531;22;45770;-89
2022/03/08 07:51:56;;;;;;;;;42.25;35.50;;;;;7.74;100.00;101343.19;6336776;22;45350;-90
2022/03/08 07:54:21;;;;;;;;;45.50;36.75;;;;;7.77;100.00;101334.66;6331546;22;46952;-90
2022/03/08 07:56:47;;;;;;;;;49.50;38.50;;;;;7.88;100.00;101337.97;6332948;22;45302;-90
2022/03/08 07:59:12;;;;;;;;;40.75;34.00;;;;;7.93;100.00;101336.56;6330682;22;45359;-89
2022/03/08 08:01:38;;;;;;;;;45.50;35.50;;;;;8.03;100.00;101335.47;6332464;22;45502;-90
2022/03/08 08:04:03;;;;;;;;;50.00;39.75;;;;;8.08;100.00;101340.97;6357626;22;46105;-89
2022/03/08 08:06:29;;;;;;;;;46.50;38.50;;;;;8.12;100.00;101342.97;6332719;22;45220;-90
2022/03/08 08:08:54;;;;;;;;;45.75;41.75;;;;;8.18;100.00;101340.78;6331976;22;54837;-90
2022/03/08 08:11:20;;;;;;;;;59.00;42.75;;;;;8.22;100.00;101334.94;6332434;22;45304;-89
2022/03/08 08:13:48;;;;;;;;;50.50;42.00;;;;;8.31;100.00;101331.09;6330843;22;45739;-90
2022/03/08 08:16:13;;;;;;;;;47.00;40.25;;;;;8.37;100.00;101328.91;6329459;22;45571;-90
2022/03/08 08:18:38;;;;;;;;;47.00;42.25;;;;;8.45;100.00;101332.00;6332697;22;45304;-89
2022/03/08 08:21:05;;;;;;;;;45.25;39.75;;;;;8.53;100.00;101340.34;6355531;22;45427;-91
2022/03/08 08:23:31;;;;;;;;;56.75;42.50;;;;;8.55;100.00;101336.09;6356724;22;47340;-88
2022/03/08 08:25:56;;;;;;;;;48.00;42.00;;;;;8.61;100.00;101339.13;6332157;22;45313;-89
2022/03/08 08:28:21;;;;;;;;;50.00;41.75;;;;;8.68;100.00;101337.81;6330277;22;45485;-90
2022/03/08 08:30:47;;;;;;;;;54.25;39.25;;;;;8.71;100.00;101332.78;6330030;22;45908;-92
2022/03/08 08:33:12;;;;;;;;;40.50;37.00;;;;;8.79;100.00;101336.75;6328040;22;45466;-92
2022/03/08 08:35:37;;;;;;;;;50.75;41.00;;;;;8.86;100.00;101338.06;6331114;22;45534;-91
2022/03/08 08:38:03;;;;;;;;;49.50;40.25;;;;;8.93;100.00;101335.00;6333013;22;45798;-94
2022/03/08 08:40:28;;;;;;;;;44.75;38.25;;;;;9.01;100.00;101342.44;6333334;22;45326;-90
2022/03/08 08:42:53;;;;;;;;;45.75;38.25;;;;;9.05;100.00;101353.19;6332604;22;46251;-91
2022/03/08 08:45:19;;;;;;;;;59.75;44.50;;;;;9.10;100.00;101348.22;6331223;22;45737;-92
2022/03/08 08:47:44;;;;;;;;;52.25;41.75;;;;;9.07;100.00;101341.91;6355176;22;45296;-92
2022/03/08 08:50:09;;;;;;;;;54.75;38.25;;;;;9.16;100.00;101342.47;6333760;22;45453;-91
2022/03/08 08:52:35;;;;;;;;;57.25;42.00;;;;;9.32;100.00;101352.16;6329803;22;46988;-94
2022/03/08 08:55:01;;;;;;;;;53.00;44.75;;;;;9.26;100.00;101344.81;6332948;22;45307;-96
2022/03/08 08:57:26;;;;;;;;;47.25;40.50;;;;;9.34;100.00;101350.53;6330007;22;45334;-91
2022/03/08 08:59:52;;;;;;;;;54.50;39.75;;;;;9.41;100.00;101348.25;6329249;22;45452;-92
2022/03/08 09:02:17;;;;;;;;;46.25;40.25;;;;;9.44;100.00;101341.50;6331962;22;46216;-90
2022/03/08 09:04:42;;;;;;;;;51.25;43.75;;;;;9.49;100.00;101342.66;6331533;22;45408;-91
2022/03/08 09:07:08;;;;;;;;;52.75;42.25;;;;;9.57;100.00;101337.88;6329601;22;45327;-92
2022/03/08 09:09:33;;;;;;;;;53.00;41.75;;;;;9.65;100.00;101335.72;6358971;22;45351;-96
2022/03/08 09:11:58;;;;;;;;;51.25;40.00;;;;;9.82;100.00;101338.41;6333121;22;45354;-95
2022/03/08 09:14:24;;;;;;;;;42.25;38.75;;;;;9.97;100.00;101341.03;6332813;22;45307;-92
2022/03/08 09:16:49;;;;;;;;;55.25;44.25;;;;;10.14;100.00;101339.38;6357178;22;47413;-92
2022/03/08 09:19:14;;;;;;;;;51.25;40.75;;;;;10.24;100.00;101332.91;6332572;22;45323;-91
2022/03/08 09:21:40;;;;;;;;;49.75;41.50;;;;;10.26;100.00;101333.91;6331997;22;45347;-91
2022/03/08 09:24:06;;;;;;;;;54.00;41.75;;;;;10.37;100.00;101331.88;6330422;22;45303;-90
2022/03/08 09:26:31;;;;;;;;;57.50;44.00;;;;;10.41;100.00;101334.69;6332441;22;45341;-89
2022/03/08 09:28:57;;;;;;;;;42.50;36.00;;;;;10.45;100.00;101321.81;6329651;22;45613;-90
2022/03/08 09:31:22;;;;;;;;;54.25;44.25;;;;;10.47;100.00;101320.16;6328674;22;47135;-91
2022/03/08 09:33:48;;;;;;;;;55.25;44.50;;;;;10.52;100.00;101322.16;6330385;22;45363;-90
2022/03/08 09:36:13;;;;;;;;;52.75;42.00;;;;;10.61;100.00;101325.31;6330712;22;45577;-91
2022/03/08 09:38:39;;;;;;;;;53.75;41.25;;;;;10.76;100.00;101329.59;6335313;22;45329;-96
2022/03/08 09:41:04;;;;;;;;;52.75;40.00;;;;;10.81;100.00;101317.59;6332050;22;48589;-90
2022/03/08 09:43:31;;;;;;;;;57.25;45.50;;;;;10.86;100.00;101324.00;6333446;22;45651;-92
2022/03/08 09:45:56;;;;;;;;;57.50;45.00;;;;;10.91;100.00;101316.38;6330067;22;45447;-90
2022/03/08 09:48:22;;;;;;;;;63.00;45.00;;;;;11.00;100.00;101329.09;6336296;22;45317;-91
2022/03/08 09:50:47;;;;;;;;;55.00;44.75;;;;;11.06;100.00;101326.78;6334972;22;45292;-95
2022/03/08 09:53:12;;;;;;;;;53.00;41.25;;;;;11.12;100.00;101318.31;6338690;22;45446;-92
2022/03/08 09:55:39;;;;;;;;;58.25;42.75;;;;;11.28;100.00;101322.66;6332121;22;45350;-89
2022/03/08 09:58:07;;;;;;;;;45.50;39.50;;;;;11.31;100.00;101317.56;6333129;22;45406;-93
2022/03/08 10:00:32;;;;;;;;;62.25;48.00;;;;;11.38;100.00;101310.91;6338884;22;45417;-94
2022/03/08 10:03:00;;;;;;;;;60.50;43.75;;;;;11.48;100.00;101313.16;6335947;22;45324;-95
2022/03/08 10:05:39;;;;;;;;;60.75;43.00;;;;;11.58;100.00;101311.00;6333255;22;45305;-95
2022/03/08 10:08:21;;;;;;;;;57.25;41.25;;;;;11.68;100.00;101320.25;6336707;22;45460;-95
2022/03/08 10:10:48;;;;;;;;;54.00;41.50;;;;;11.63;100.00;101309.50;6336651;22;47403;-95
2022/03/08 10:13:14;;;;;;;;;55.75;44.75;;;;;11.73;100.00;101318.75;6334226;22;45451;-93
2022/03/08 10:15:40;;;;;;;;;37.75;34.75;;;;;11.75;100.00;101305.69;6333723;22;45316;-95
2022/03/08 10:18:06;;;;;;;;;60.00;45.25;;;;;11.84;100.00;101306.13;6333779;22;45261;-94
2022/03/08 10:20:33;;;;;;;;;63.00;46.25;;;;;11.92;100.00;101299.53;6359101;22;47243;-92
2022/03/08 10:23:01;;;;;;;;;50.25;41.25;;;;;11.98;100.00;101300.66;6327205;22;46023;-87
2022/03/08 10:25:29;;;;;;;;;54.25;40.75;;;;;12.03;100.00;101286.91;6329980;22;45274;-90
2022/03/08 10:27:54;;;;;;;;;56.25;45.75;;;;;11.99;100.00;101291.91;6330611;22;45429;-88
2022/03/08 10:30:25;;;;;;;;;56.25;42.75;;;;;12.10;100.00;101293.34;6331949;22;46369;-94
2022/03/08 10:32:56;;;;;;;;;25.25;16.75;;;;;12.16;100.00;101288.41;6332447;22;45348;-89
2022/03/08 10:35:26;;;;;;;;;57.00;42.75;;;;;12.21;100.00;101288.63;6332338;22;45715;-92
2022/03/08 10:37:52;;;;;;;;;60.25;48.75;;;;;12.22;100.00;101292.16;6331132;22;45318;-94
2022/03/08 10:40:22;;;;;;;;;54.25;42.75;;;;;12.36;100.00;101288.47;6337609;22;45583;-94
2022/03/08 10:42:58;;;;;;;;;53.75;40.50;;;;;12.49;100.00;101289.94;6335308;22;45439;-95
2022/03/08 10:45:26;;;;;;;;;57.25;45.25;;;;;12.55;100.00;101283.16;6337026;22;45346;-95
2022/03/08 10:47:53;;;;;;;;;58.00;44.25;;;;;12.56;100.00;101274.41;6334894;22;45247;-91
2022/03/08 10:50:23;;;;;;;;;57.25;44.00;;;;;12.69;100.00;101268.88;6329161;22;46312;-91
2022/03/08 10:52:51;;;;;;;;;56.75;44.25;;;;;12.82;100.00;101278.22;6329984;22;45535;-90
2022/03/08 10:55:20;;;;;;;;;57.00;45.00;;;;;12.87;100.00;101274.88;6334446;22;45458;-92
2022/03/08 10:57:50;;;;;;;;;56.50;44.50;;;;;12.91;100.00;101267.16;6335397;22;45733;-88
2022/03/08 11:00:20;;;;;;;;;54.75;43.00;;;;;12.95;100.00;101258.59;6339464;22;45568;-90
2022/03/08 11:03:00;;;;;;;;;58.50;47.25;;;;;13.07;100.00;101255.56;6329551;22;45513;-89
2022/03/08 11:05:28;;;;;;;;;60.75;45.75;;;;;13.09;100.00;101263.53;6334042;22;45255;-94
2022/03/08 11:07:55;;;;;;;;;54.50;43.75;;;;;13.07;100.00;101252.94;6332679;22;45387;-89
2022/03/08 11:10:21;;;;;;;;;58.50;47.50;;;;;13.15;100.00;101255.00;6334827;22;45513;-93
2022/03/08 11:12:47;;;;;;;;;56.50;44.75;;;;;13.22;100.00;101249.16;6334193;22;45347;-94
2022/03/08 11:15:15;;;;;;;;;49.75;41.00;;;;;13.36;100.00;101257.66;6334904;22;45331;-91
2022/03/08 11:17:47;;;;;;;;;60.75;43.50;;;;;13.43;100.00;101252.63;6333807;22;45202;-92
2022/03/08 11:20:13;;;;;;;;;60.50;46.25;;;;;13.38;100.00;101245.44;6333707;22;48054;-91
2022/03/08 11:22:39;;;;;;;;;64.25;47.75;;;;;13.47;100.00;101249.31;6375068;22;45283;-91
2022/03/08 11:25:08;;;;;;;;;55.00;43.00;;;;;13.55;100.00;101242.59;6348737;22;45240;-91
2022/03/08 11:27:35;;;;;;;;;59.00;47.75;;;;;13.57;100.00;101240.06;6346898;22;45296;-93
2022/03/08 11:30:01;;;;;;;;;54.00;43.00;;;;;13.73;100.00;101244.22;6377146;22;47657;-96
2022/03/08 11:32:52;;;;;;;;;57.00;43.50;;;;;13.88;100.00;101240.41;6346742;22;44748;-93
2022/03/08 11:35:41;;;;;;;;;52.25;43.50;;;;;14.00;100.00;101243.50;6276835;22;45458;-91
2022/03/08 11:38:12;;;;;;;;;45.00;37.00;;;;;14.02;100.00;101243.59;6273705;22;45589;-92
2022/03/08 11:40:38;;;;;;;;;60.50;47.50;;;;;14.03;100.00;101237.44;6270680;22;46623;-95
2022/03/08 11:43:07;;;;;;;;;52.50;42.25;;;;;14.18;100.00;101250.34;6270148;22;45519;-91
2022/03/08 11:45:34;;;;;;;;;59.00;47.00;;;;;14.27;100.00;101233.97;6270183;22;45328;-94
2022/03/08 11:48:01;;;;;;;;;53.50;42.50;;;;;14.37;100.00;101230.84;6271855;22;45286;-94
2022/03/08 11:50:36;;;;;;;;;59.50;46.25;;;;;14.50;100.00;101233.94;6269903;22;45382;-94
2022/03/08 11:53:11;;;;;;;;;60.00;45.50;;;;;14.57;100.00;101233.31;6243619;22;45382;-96
2022/03/08 11:55:47;;;;;;;;;57.50;45.50;;;;;14.69;100.00;101229.34;6269613;22;45309;-92
2022/03/08 11:58:20;;;;;;;;;52.50;44.00;;;;;14.73;100.00;101228.59;6269205;22;45427;-89
2022/03/08 12:00:54;;;;;;;;;55.00;42.75;;;;;14.79;100.00;101228.78;6270871;22;45295;-95
2022/03/08 12:03:22;;;;;;;;;58.50;43.75;;;;;14.84;100.00;101231.63;6270149;22;45300;-94
2022/03/08 12:05:57;;;;;;;;;56.25;43.25;;;;;14.89;100.00;101227.44;6242550;22;45568;-92
2022/03/08 12:08:28;;;;;;;;;59.00;44.75;;;;;15.04;100.00;101232.34;6268790;22;45369;-92
2022/03/08 12:11:13;;;;;;;;;57.25;46.00;;;;;15.07;100.00;101221.88;6268313;22;46761;-92
2022/03/08 12:13:41;;;;;;;;;56.50;45.25;;;;;15.22;100.00;101214.41;6334297;22;45290;-93
2022/03/08 12:16:06;;;;;;;;;36.25;21.75;;;;;15.29;100.00;101217.31;6334998;22;45366;-93
2022/03/08 12:18:47;;;;;;;;;57.75;42.50;;;;;15.48;100.00;101214.38;6335264;22;45561;-93
2022/03/08 12:21:22;;;;;;;;;53.75;41.25;;;;;15.56;100.00;101207.59;6334453;22;45498;-91
2022/03/08 12:23:53;;;;;;;;;54.25;42.50;;;;;15.65;100.00;101212.25;6332588;22;45378;-93
2022/03/08 12:26:37;;;;;;;;;54.75;43.75;;;;;15.78;100.00;101212.66;6328928;22;45614;-92
2022/03/08 12:29:14;;;;;;;;;54.00;43.50;;;;;15.85;100.00;101214.63;6330623;22;45320;-91
2022/03/08 12:31:58;;;;;;;;;59.50;45.75;;;;;15.95;100.00;101215.84;6333004;22;45413;-89
2022/03/08 12:34:43;;;;;;;;;60.25;47.00;;;;;16.03;100.00;101219.59;6330698;22;45398;-91
2022/03/08 12:37:20;;;;;;;;;60.75;43.75;;;;;16.12;100.00;101223.41;6357863;22;45260;-90
2022/03/08 12:39:51;;;;;;;;;52.50;40.75;;;;;16.22;100.00;101220.19;6355825;22;45449;-93
2022/03/08 12:42:20;;;;;;;;;46.50;39.50;;;;;16.30;100.00;101215.13;6329329;22;47904;-93
2022/03/08 12:45:03;;;;;;;;;56.50;42.00;;;;;16.47;100.00;101227.94;6330108;22;45514;-90
2022/03/08 12:47:33;;;;;;;;;54.75;41.75;;;;;16.50;100.00;101215.69;6331139;22;45438;-91
2022/03/08 12:50:06;;;;;;;;;56.00;43.00;;;;;16.62;100.00;101219.56;6333586;22;45629;-92
2022/03/08 12:52:37;;;;;;;;;52.25;41.50;;;;;16.77;100.00;101218.16;6356902;22;48173;-90
2022/03/08 12:55:05;;;;;;;;;48.00;41.00;;;;;16.84;100.00;101218.38;6333248;22;45312;-91
2022/03/08 12:57:36;;;;;;;;;51.75;39.50;;;;;16.97;100.00;101206.34;6331078;22;45304;-91
2022/03/08 13:00:03;;;;;;;;;51.25;40.25;;;;;17.06;100.00;101210.09;6329822;22;45733;-92
2022/03/08 13:02:34;;;;;;;;;52.25;40.00;;;;;17.15;100.00;101207.69;6330694;22;45334;-92
2022/03/08 13:05:05;;;;;;;;;47.50;38.25;;;;;17.19;100.00;101211.31;6329556;22;45578;-92
2022/03/08 13:07:31;;;;;;;;;48.00;39.75;;;;;17.16;100.00;101212.13;6329951;22;45522;-93
2022/03/08 13:09:58;;;;;;;;;53.00;39.50;;;;;17.22;100.00;101202.53;6332924;22;45811;-92
2022/03/08 13:12:33;;;;;;;;;52.50;41.50;;;;;17.33;100.00;101202.81;6331019;22;46399;-92
2022/03/08 13:15:16;;;;;;;;;55.75;41.50;;;;;17.38;100.00;101201.19;6330350;22;45302;-92
2022/03/08 13:17:44;;;;;;;;;48.00;36.50;;;;;17.29;100.00;101201.88;6331775;22;45662;-92
2022/03/08 13:20:26;;;;;;;;;46.25;39.25;;;;;17.25;100.00;101195.56;6331343;22;45446;-92
2022/03/08 13:22:53;;;;;;;;;47.25;37.50;;;;;17.22;100.00;101207.84;6331653;22;46023;-91
2022/03/08 13:25:19;;;;;;;;;49.50;38.50;;;;;17.25;100.00;101210.59;6331467;22;45371;-93
2022/03/08 13:28:09;;;;;;;;;49.50;39.75;;;;;17.34;100.00;101202.88;6355551;22;45778;-92
2022/03/08 13:30:38;;;;;;;;;44.00;35.75;;;;;17.38;100.00;101201.19;6327151;22;45371;-92
2022/03/08 13:33:11;;;;;;;;;45.00;35.50;;;;;17.45;100.00;101199.56;6330090;22;46169;-92
2022/03/08 13:35:38;;;;;;;;;43.75;37.75;;;;;17.38;100.00;101201.19;6330163;22;45298;-92
2022/03/08 13:38:04;;;;;;;;;51.50;40.00;;;;;17.32;100.00;101199.25;6331522;22;45257;-92
2022/03/08 13:40:33;;;;;;;;;44.75;37.50;;;;;17.32;100.00;101204.56;6332354;22;45634;-91
2022/03/08 13:42:59;;;;;;;;;41.50;35.00;;;;;17.29;100.00;101209.81;6331249;22;45326;-92
2022/03/08 13:45:26;;;;;;;;;37.50;35.25;;;;;17.24;100.00;101212.34;6332725;22;45333;-92
2022/03/08 13:47:54;;;;;;;;;46.50;37.00;;;;;17.24;100.00;101214.13;6329528;22;45309;-92
2022/03/08 13:50:21;;;;;;;;;43.00;35.25;;;;;17.22;100.00;101206.09;6329484;22;45348;-93
2022/03/08 13:52:56;;;;;;;;;40.75;35.50;;;;;17.30;100.00;101214.25;6329311;22;48662;-91
2022/03/08 13:55:29;;;;;;;;;36.25;29.00;;;;;17.28;100.00;101205.38;6333295;22;45695;-92
2022/03/08 13:58:01;;;;;;;;;42.25;35.75;;;;;17.19;100.00;101187.44;6331683;22;45337;-90
2022/03/08 14:00:37;;;;;;;;;39.25;34.25;;;;;17.25;100.00;101187.63;6331351;22;45456;-91
2022/03/08 14:03:05;;;;;;;;;33.50;31.00;;;;;17.26;98.67;101191.16;6355281;22;46087;-92
2022/03/08 14:05:47;;;;;;;;;40.00;34.25;;;;;17.36;100.00;101194.94;6332320;22;45303;-91
2022/03/08 14:08:22;;;;;;;;;44.50;33.00;;;;;17.54;100.00;101199.81;6330802;22;45366;-91
2022/03/08 14:10:53;;;;;;;;;37.75;31.25;;;;;17.96;100.00;101202.50;6331690;22;45465;-91
2022/03/08 14:13:19;;;;;;;;;40.50;33.25;;;;;18.28;100.00;101199.66;6331088;22;46433;-92
2022/03/08 14:16:05;;;;;;;;;41.50;31.25;;;;;18.92;100.00;101205.28;6328670;22;45864;-91
2022/03/08 14:18:32;;;;;;;;;40.75;33.50;;;;;19.51;100.00;101205.41;6332254;22;45544;-92
2022/03/08 14:20:59;;;;;;;;;39.25;33.75;;;;;20.09;100.00;101206.22;6332822;22;45289;-91
2022/03/08 14:23:25;;;;;;;;;42.00;35.50;;;;;20.92;100.00;101197.38;6332407;22;45390;-92
2022/03/08 14:26:06;;;;;;;;;41.75;34.50;;;;;22.84;100.00;101194.88;6330508;22;45309;-91
2022/03/08 14:28:50;;;;;;;;;45.00;36.50;;;;;26.36;100.00;101195.50;6329144;22;45344;-92
2022/03/08 14:31:16;;;;;;;;;44.50;37.75;;;;;29.27;100.00;101198.00;6330917;22;45499;-92
2022/03/08 14:34:06;;;;;;;;;43.50;34.00;;;;;32.19;100.00;101200.44;6330176;22;46245;-92